Time;durP1;ratioP1;P1;durP2;ratioP2;P2;SDS_P1;SDS_P2;PMS_P1;PMS_P2;Temp;Humidity;BMP_temperature;BMP_pressure;BME280_temperature;BME280_humidity;BME280_pressure;Samples;Min_cycle;Max_cycle;Signal;HPM_P1;HPM_P2
2023/12/27 00:02:04;;;;;;;12.63;2.33;;;;;;;;;;5016306;28;20960;-78
2023/12/27 00:04:30;;;;;;;9.43;1.13;;;;;;;;;;5016284;28;20423;-78
2023/12/27 00:06:57;;;;;;;8.63;1.60;;;;;;;;;;5015645;28;20543;-77
2023/12/27 00:09:23;;;;;;;8.33;1.27;;;;;;;;;;5016290;28;20430;-78
2023/12/27 00:11:49;;;;;;;10.10;1.37;;;;;;;;;;5015936;28;20414;-76
2023/12/27 00:14:23;;;;;;;7.93;0.70;;;;;;;;;;5016056;28;20416;-77
2023/12/27 00:16:49;;;;;;;7.20;1.37;;;;;;;;;;5016163;28;20499;-78
2023/12/27 00:19:15;;;;;;;5.60;1.00;;;;;;;;;;5016262;28;20445;-78
2023/12/27 00:21:41;;;;;;;15.57;2.00;;;;;;;;;;5014847;28;20552;-77
2023/12/27 00:24:07;;;;;;;15.63;1.70;;;;;;;;;;5016156;28;20922;-77
2023/12/27 00:26:33;;;;;;;17.47;2.07;;;;;;;;;;5015995;28;20418;-77
2023/12/27 00:28:59;;;;;;;7.70;1.60;;;;;;;;;;5015759;28;20424;-77
2023/12/27 00:31:25;;;;;;;7.20;0.80;;;;;;;;;;5016064;28;21074;-77
2023/12/27 00:33:55;;;;;;;6.27;0.80;;;;;;;;;;5015763;28;20465;-77
2023/12/27 00:36:21;;;;;;;3.83;0.60;;;;;;;;;;5015771;28;20772;-77
2023/12/27 00:38:47;;;;;;;5.40;1.23;;;;;;;;;;5015718;28;20421;-77
2023/12/27 00:41:13;;;;;;;9.33;1.23;;;;;;;;;;5015867;28;21013;-77
2023/12/27 00:43:40;;;;;;;12.17;0.73;;;;;;;;;;5015432;28;20519;-77
2023/12/27 00:46:06;;;;;;;7.07;0.50;;;;;;;;;;5015714;28;20425;-77
2023/12/27 00:48:32;;;;;;;15.13;1.80;;;;;;;;;;5015514;28;20424;-77
2023/12/27 00:50:59;;;;;;;13.77;1.10;;;;;;;;;;5015175;28;20425;-77
2023/12/27 00:53:25;;;;;;;5.37;0.70;;;;;;;;;;5015495;28;20473;-77
2023/12/27 00:55:51;;;;;;;10.53;0.80;;;;;;;;;;5015609;28;20746;-77
2023/12/27 00:58:17;;;;;;;11.60;0.80;;;;;;;;;;5015109;28;20488;-77
2023/12/27 01:00:43;;;;;;;5.67;1.43;;;;;;;;;;5015251;28;20542;-77
2023/12/27 01:03:09;;;;;;;3.77;0.90;;;;;;;;;;5013226;28;20521;-77
2023/12/27 01:05:35;;;;;;;8.13;1.30;;;;;;;;;;5014684;28;20428;-78
2023/12/27 01:08:04;;;;;;;9.77;1.10;;;;;;;;;;5015324;28;20423;-78
2023/12/27 01:10:30;;;;;;;6.50;2.10;;;;;;;;;;5015229;28;20413;-77
2023/12/27 01:12:56;;;;;;;5.73;0.70;;;;;;;;;;5014813;28;20487;-77
2023/12/27 01:15:22;;;;;;;4.17;0.90;;;;;;;;;;5015297;28;20413;-77
2023/12/27 01:17:48;;;;;;;4.00;0.63;;;;;;;;;;5015142;28;20410;-77
2023/12/27 01:20:15;;;;;;;4.70;1.20;;;;;;;;;;5013524;28;20459;-77
2023/12/27 01:22:41;;;;;;;11.07;1.10;;;;;;;;;;5014979;28;20420;-78
2023/12/27 01:25:09;;;;;;;6.53;0.63;;;;;;;;;;5015078;28;20403;-77
2023/12/27 01:27:34;;;;;;;6.23;1.33;;;;;;;;;;5014688;28;20410;-77
2023/12/27 01:30:00;;;;;;;3.53;0.90;;;;;;;;;;5014944;28;20442;-78
2023/12/27 01:32:26;;;;;;;8.83;2.37;;;;;;;;;;5014740;28;20470;-78
2023/12/27 01:34:52;;;;;;;5.50;0.80;;;;;;;;;;5014903;28;20410;-77
2023/12/27 01:37:18;;;;;;;10.13;2.03;;;;;;;;;;5014823;28;20498;-77
2023/12/27 01:39:44;;;;;;;11.27;1.80;;;;;;;;;;5014537;28;20754;-77
2023/12/27 01:42:10;;;;;;;15.57;1.10;;;;;;;;;;5014402;28;20408;-77
2023/12/27 01:44:36;;;;;;;12.37;2.37;;;;;;;;;;5014488;28;20414;-77
2023/12/27 01:47:02;;;;;;;14.87;1.37;;;;;;;;;;5014516;28;20423;-77
2023/12/27 01:49:28;;;;;;;5.07;0.77;;;;;;;;;;5014653;28;20409;-77
2023/12/27 01:51:54;;;;;;;7.10;1.50;;;;;;;;;;5014367;28;20429;-77
2023/12/27 01:54:19;;;;;;;9.23;1.17;;;;;;;;;;5014513;28;20430;-78
2023/12/27 01:56:45;;;;;;;7.93;0.70;;;;;;;;;;5029124;28;20426;-77
2023/12/27 01:59:12;;;;;;;4.43;1.53;;;;;;;;;;5014400;28;20476;-77
2023/12/27 02:01:38;;;;;;;7.07;1.07;;;;;;;;;;5014112;28;20500;-77
2023/12/27 02:04:04;;;;;;;5.33;0.90;;;;;;;;;;5029525;28;20839;-78
2023/12/27 02:06:30;;;;;;;11.20;1.90;;;;;;;;;;5014137;28;20422;-77
2023/12/27 02:08:56;;;;;;;9.97;2.10;;;;;;;;;;5014126;28;20487;-77
2023/12/27 02:11:22;;;;;;;12.73;1.10;;;;;;;;;;5014154;28;20508;-77
2023/12/27 02:13:48;;;;;;;2.37;1.00;;;;;;;;;;5013604;28;20805;-77
2023/12/27 02:16:14;;;;;;;8.77;1.37;;;;;;;;;;5013827;28;20408;-77
2023/12/27 02:18:40;;;;;;;7.03;0.70;;;;;;;;;;5013904;28;20927;-77
2023/12/27 02:21:09;;;;;;;9.10;1.50;;;;;;;;;;5012995;28;20415;-77
2023/12/27 02:23:37;;;;;;;12.03;2.17;;;;;;;;;;5013936;28;20418;-77
2023/12/27 02:26:04;;;;;;;8.53;0.80;;;;;;;;;;5013974;28;20448;-77
2023/12/27 02:28:29;;;;;;;3.50;0.77;;;;;;;;;;5013480;28;20426;-78
2023/12/27 02:30:55;;;;;;;7.63;1.73;;;;;;;;;;5013270;28;20469;-77
2023/12/27 02:33:21;;;;;;;5.23;0.67;;;;;;;;;;5013989;28;20888;-77
2023/12/27 02:35:47;;;;;;;7.30;0.70;;;;;;;;;;5012823;28;20465;-78
2023/12/27 02:38:13;;;;;;;12.50;2.00;;;;;;;;;;5014055;28;20459;-77
2023/12/27 02:40:39;;;;;;;7.93;1.03;;;;;;;;;;5013869;28;20457;-77
2023/12/27 02:43:05;;;;;;;6.40;1.30;;;;;;;;;;5013423;28;20503;-77
2023/12/27 02:45:31;;;;;;;12.27;3.80;;;;;;;;;;5013754;28;20407;-78
2023/12/27 02:47:57;;;;;;;9.90;1.20;;;;;;;;;;5028931;28;20939;-77
2023/12/27 02:50:22;;;;;;;6.63;1.50;;;;;;;;;;5013738;28;20490;-77
2023/12/27 02:52:48;;;;;;;13.33;2.20;;;;;;;;;;5013581;28;20469;-77
2023/12/27 02:55:14;;;;;;;5.50;1.30;;;;;;;;;;5013650;28;20772;-78
2023/12/27 02:57:40;;;;;;;8.93;1.40;;;;;;;;;;5011721;28;20490;-77
2023/12/27 03:00:06;;;;;;;5.00;1.40;;;;;;;;;;5026766;28;20414;-77
2023/12/27 03:02:35;;;;;;;4.80;0.80;;;;;;;;;;5012270;28;20456;-77
2023/12/27 03:05:02;;;;;;;6.63;1.37;;;;;;;;;;5012233;28;20420;-77
2023/12/27 03:07:28;;;;;;;4.43;0.90;;;;;;;;;;5027459;28;20422;-78
2023/12/27 03:09:53;;;;;;;11.00;2.00;;;;;;;;;;5012836;28;20425;-77
2023/12/27 03:12:19;;;;;;;5.90;1.93;;;;;;;;;;5012595;28;20465;-77
2023/12/27 03:14:45;;;;;;;1.90;0.70;;;;;;;;;;5012467;28;20419;-77
2023/12/27 03:17:11;;;;;;;14.53;1.30;;;;;;;;;;5028028;28;20443;-77
2023/12/27 03:19:37;;;;;;;3.63;1.00;;;;;;;;;;5013008;28;20421;-77
2023/12/27 03:22:03;;;;;;;8.17;1.00;;;;;;;;;;5012911;28;20494;-77
2023/12/27 03:24:29;;;;;;;8.33;0.40;;;;;;;;;;5012927;28;20925;-75
2023/12/27 03:26:55;;;;;;;3.67;0.73;;;;;;;;;;5011704;28;20407;-77
2023/12/27 03:29:21;;;;;;;7.17;0.67;;;;;;;;;;5012847;28;20834;-78
2023/12/27 03:31:46;;;;;;;4.63;1.20;;;;;;;;;;5012599;28;20444;-78
2023/12/27 03:34:12;;;;;;;9.40;1.10;;;;;;;;;;5012819;28;20422;-78
2023/12/27 03:36:44;;;;;;;5.40;0.57;;;;;;;;;;5027984;28;20412;-78
2023/12/27 03:39:10;;;;;;;6.43;0.80;;;;;;;;;;5012711;28;20412;-78
2023/12/27 03:41:36;;;;;;;6.77;1.00;;;;;;;;;;5012349;28;20443;-78
2023/12/27 03:44:02;;;;;;;4.10;1.47;;;;;;;;;;5012643;28;20412;-78
2023/12/27 03:46:28;;;;;;;7.03;1.10;;;;;;;;;;5012715;28;20432;-78
2023/12/27 03:48:54;;;;;;;7.00;1.03;;;;;;;;;;5012660;28;20398;-78
2023/12/27 03:51:23;;;;;;;4.53;1.70;;;;;;;;;;5013109;28;20410;-78
2023/12/27 03:53:49;;;;;;;8.43;0.70;;;;;;;;;;5013069;28;20860;-78
2023/12/27 03:56:15;;;;;;;2.90;0.80;;;;;;;;;;5012616;28;20414;-78
2023/12/27 03:58:44;;;;;;;4.77;0.77;;;;;;;;;;5013053;28;20526;-78
2023/12/27 04:01:10;;;;;;;7.70;0.60;;;;;;;;;;5012799;28;20485;-77
2023/12/27 04:03:36;;;;;;;8.30;1.80;;;;;;;;;;5013069;28;20455;-78
2023/12/27 04:06:02;;;;;;;4.43;0.83;;;;;;;;;;5012893;28;20508;-78
2023/12/27 04:08:28;;;;;;;8.17;0.93;;;;;;;;;;5012939;28;20508;-78
2023/12/27 04:10:54;;;;;;;4.60;2.27;;;;;;;;;;5012971;28;20414;-78
2023/12/27 04:13:19;;;;;;;8.43;0.90;;;;;;;;;;5012474;28;20475;-78
2023/12/27 04:15:45;;;;;;;9.07;1.00;;;;;;;;;;5012842;28;20509;-78
2023/12/27 04:18:12;;;;;;;8.07;1.07;;;;;;;;;;5012838;28;20441;-78
2023/12/27 04:20:38;;;;;;;3.13;0.47;;;;;;;;;;5012725;28;20416;-78
2023/12/27 04:23:04;;;;;;;14.13;1.57;;;;;;;;;;5012851;28;20425;-78
2023/12/27 04:25:29;;;;;;;4.53;0.57;;;;;;;;;;5012805;28;20773;-78
2023/12/27 04:27:55;;;;;;;2.83;0.70;;;;;;;;;;5012519;28;20885;-78
2023/12/27 04:30:25;;;;;;;13.47;1.60;;;;;;;;;;5012808;28;20419;-78
2023/12/27 04:32:51;;;;;;;3.87;1.30;;;;;;;;;;5012695;28;20568;-78
2023/12/27 04:35:17;;;;;;;3.30;0.43;;;;;;;;;;5027974;28;20449;-78
2023/12/27 04:37:42;;;;;;;2.90;0.63;;;;;;;;;;5013908;28;20416;-78
2023/12/27 04:40:09;;;;;;;3.27;0.97;;;;;;;;;;5016280;28;20424;-78
2023/12/27 04:42:34;;;;;;;4.90;0.93;;;;;;;;;;5016011;28;21011;-78
2023/12/27 04:45:00;;;;;;;4.97;0.97;;;;;;;;;;5016163;28;20422;-78
2023/12/27 04:47:27;;;;;;;7.10;1.83;;;;;;;;;;5016148;28;20520;-78
2023/12/27 04:49:53;;;;;;;8.63;1.57;;;;;;;;;;5015944;28;20508;-78
2023/12/27 04:52:19;;;;;;;12.67;1.27;;;;;;;;;;5015947;28;21060;-79
2023/12/27 04:54:45;;;;;;;10.53;2.03;;;;;;;;;;5016016;28;20408;-78
2023/12/27 04:57:11;;;;;;;13.87;3.03;;;;;;;;;;5030842;28;20940;-78
2023/12/27 04:59:37;;;;;;;5.20;1.43;;;;;;;;;;5015865;28;20426;-78
2023/12/27 05:02:03;;;;;;;7.00;0.73;;;;;;;;;;5015665;28;20478;-78
2023/12/27 05:04:29;;;;;;;9.13;1.80;;;;;;;;;;5015743;28;20421;-78
2023/12/27 05:06:54;;;;;;;7.93;1.50;;;;;;;;;;5015734;28;20409;-78
2023/12/27 05:09:20;;;;;;;10.60;1.57;;;;;;;;;;5015697;28;20418;-79
2023/12/27 05:11:47;;;;;;;8.53;1.90;;;;;;;;;;5015301;28;20879;-79
2023/12/27 05:14:15;;;;;;;6.13;1.10;;;;;;;;;;5015560;28;21008;-78
2023/12/27 05:16:41;;;;;;;15.43;1.37;;;;;;;;;;5030765;28;20480;-79
2023/12/27 05:19:07;;;;;;;8.23;1.30;;;;;;;;;;5015512;28;20411;-76
2023/12/27 05:21:33;;;;;;;6.40;1.10;;;;;;;;;;5015356;28;20488;-75
2023/12/27 05:23:59;;;;;;;10.37;1.47;;;;;;;;;;5015425;28;20924;-75
2023/12/27 05:26:27;;;;;;;9.90;1.13;;;;;;;;;;5030258;28;20418;-78
2023/12/27 05:28:53;;;;;;;9.20;1.83;;;;;;;;;;5030660;28;20424;-79
2023/12/27 05:31:19;;;;;;;5.57;0.70;;;;;;;;;;5015281;28;20515;-76
2023/12/27 05:33:45;;;;;;;9.53;0.80;;;;;;;;;;5015172;28;20470;-76
2023/12/27 05:36:11;;;;;;;12.83;1.30;;;;;;;;;;5015221;28;20407;-76
2023/12/27 05:38:37;;;;;;;5.53;1.80;;;;;;;;;;5015159;28;20787;-75
2023/12/27 05:41:03;;;;;;;12.30;1.70;;;;;;;;;;5014693;28;20942;-75
2023/12/27 05:43:29;;;;;;;8.53;1.67;;;;;;;;;;5014956;28;20414;-76
2023/12/27 05:45:55;;;;;;;7.93;1.60;;;;;;;;;;5014991;28;20941;-77
2023/12/27 05:48:21;;;;;;;6.40;1.37;;;;;;;;;;5014927;28;20454;-75
2023/12/27 05:50:47;;;;;;;11.50;2.87;;;;;;;;;;5014244;28;20407;-76
2023/12/27 05:53:12;;;;;;;8.50;1.17;;;;;;;;;;5014833;28;20488;-78
2023/12/27 05:55:38;;;;;;;11.20;1.83;;;;;;;;;;5014743;28;20402;-76
2023/12/27 05:58:04;;;;;;;6.67;1.13;;;;;;;;;;5014515;28;20454;-76
2023/12/27 06:00:30;;;;;;;9.37;1.27;;;;;;;;;;5014455;28;20904;-76
2023/12/27 06:02:56;;;;;;;7.80;1.83;;;;;;;;;;5014704;28;20414;-76
2023/12/27 06:05:23;;;;;;;11.83;2.10;;;;;;;;;;5014624;28;20413;-78
2023/12/27 06:07:49;;;;;;;11.47;2.37;;;;;;;;;;5014583;28;20823;-78
2023/12/27 06:10:15;;;;;;;5.97;2.13;;;;;;;;;;5014571;28;20418;-78
2023/12/27 06:12:41;;;;;;;7.40;1.37;;;;;;;;;;5029330;28;20489;-78
2023/12/27 06:15:08;;;;;;;12.40;2.27;;;;;;;;;;5014195;28;20760;-78
2023/12/27 06:17:34;;;;;;;5.97;0.97;;;;;;;;;;5014428;28;20468;-78
2023/12/27 06:20:00;;;;;;;11.37;1.57;;;;;;;;;;5029619;28;20416;-78
2023/12/27 06:22:26;;;;;;;12.40;2.37;;;;;;;;;;5029589;28;20773;-78
2023/12/27 06:24:52;;;;;;;11.67;1.50;;;;;;;;;;5014345;28;20432;-78
2023/12/27 06:27:18;;;;;;;7.30;1.60;;;;;;;;;;5013938;28;20472;-78
2023/12/27 06:29:44;;;;;;;6.83;2.00;;;;;;;;;;5014185;28;20422;-78
2023/12/27 06:32:10;;;;;;;5.10;1.80;;;;;;;;;;5014018;28;20485;-76
2023/12/27 06:34:36;;;;;;;5.53;1.30;;;;;;;;;;5013871;28;20422;-76
2023/12/27 06:37:02;;;;;;;10.43;2.43;;;;;;;;;;5014153;28;20837;-78
2023/12/27 06:39:28;;;;;;;10.00;1.90;;;;;;;;;;5014082;28;20448;-79
2023/12/27 06:41:54;;;;;;;6.67;2.23;;;;;;;;;;5013706;28;20441;-78
2023/12/27 06:44:20;;;;;;;19.07;2.27;;;;;;;;;;5013788;28;20422;-78
2023/12/27 06:46:46;;;;;;;10.70;1.93;;;;;;;;;;5013899;28;20459;-78
2023/12/27 06:49:12;;;;;;;10.00;1.57;;;;;;;;;;5013942;28;20412;-78
2023/12/27 06:51:38;;;;;;;9.00;1.50;;;;;;;;;;5013882;28;20417;-78
2023/12/27 06:54:04;;;;;;;12.23;2.53;;;;;;;;;;5013673;28;21026;-77
2023/12/27 06:56:30;;;;;;;7.40;1.43;;;;;;;;;;5013592;28;20415;-78
2023/12/27 06:58:56;;;;;;;3.10;0.87;;;;;;;;;;5013753;28;20424;-78
2023/12/27 07:01:22;;;;;;;4.50;0.87;;;;;;;;;;5013464;28;20461;-75
2023/12/27 07:03:48;;;;;;;4.70;0.80;;;;;;;;;;5013661;28;20421;-75
2023/12/27 07:06:13;;;;;;;9.70;1.50;;;;;;;;;;5013608;28;20417;-75
2023/12/27 07:08:39;;;;;;;11.90;2.27;;;;;;;;;;5013651;28;20410;-76
2023/12/27 07:11:05;;;;;;;11.57;1.70;;;;;;;;;;5013214;28;20979;-78
2023/12/27 07:13:31;;;;;;;10.77;2.47;;;;;;;;;;5013428;28;20512;-78
2023/12/27 07:15:57;;;;;;;10.60;1.63;;;;;;;;;;5013427;28;20432;-78
2023/12/27 07:18:23;;;;;;;4.23;0.70;;;;;;;;;;5012157;28;20492;-78
2023/12/27 07:20:49;;;;;;;4.40;1.67;;;;;;;;;;5013436;28;20415;-78
2023/12/27 07:23:15;;;;;;;7.73;1.43;;;;;;;;;;5013410;28;20430;-78
2023/12/27 07:25:41;;;;;;;6.37;1.33;;;;;;;;;;5011797;28;20905;-78
2023/12/27 07:28:07;;;;;;;6.80;1.40;;;;;;;;;;5013276;28;20475;-78
2023/12/27 07:30:35;;;;;;;5.17;1.77;;;;;;;;;;5013317;28;20167;-78
2023/12/27 07:33:01;;;;;;;4.10;1.30;;;;;;;;;;5013201;28;20473;-78
2023/12/27 07:35:29;;;;;;;15.33;1.60;;;;;;;;;;5013378;28;20501;-78
2023/12/27 07:37:55;;;;;;;10.07;1.40;;;;;;;;;;5013249;28;20418;-79
2023/12/27 07:40:21;;;;;;;7.77;1.47;;;;;;;;;;5011948;28;20417;-78
2023/12/27 07:42:48;;;;;;;8.03;1.27;;;;;;;;;;5012805;28;20948;-77
2023/12/27 07:45:14;;;;;;;10.83;2.17;;;;;;;;;;5013069;28;20422;-78
2023/12/27 07:47:40;;;;;;;4.30;1.27;;;;;;;;;;5013144;28;20417;-78
2023/12/27 07:50:06;;;;;;;11.63;1.77;;;;;;;;;;5013160;28;20887;-78
2023/12/27 07:52:32;;;;;;;13.63;3.70;;;;;;;;;;5013054;28;20468;-78
2023/12/27 07:54:58;;;;;;;4.32;1.33;;;;;;;;;;5012601;28;20457;-78
2023/12/27 07:57:24;;;;;;;6.50;1.03;;;;;;;;;;5012665;28;20263;-78
2023/12/27 07:59:55;;;;;;;10.23;2.20;;;;;;;;;;5013055;28;20871;-78
2023/12/27 08:02:21;;;;;;;7.47;1.13;;;;;;;;;;5012819;28;20819;-78
2023/12/27 08:04:47;;;;;;;8.23;1.63;;;;;;;;;;5013056;28;20410;-78
2023/12/27 08:07:13;;;;;;;5.00;1.20;;;;;;;;;;5013176;28;20414;-78
2023/12/27 08:09:39;;;;;;;7.50;1.30;;;;;;;;;;5013555;28;20468;-78
2023/12/27 08:12:08;;;;;;;9.73;1.50;;;;;;;;;;5011713;28;20406;-78
2023/12/27 08:14:34;;;;;;;6.60;2.03;;;;;;;;;;5017016;28;20434;-78
2023/12/27 08:17:00;;;;;;;4.17;1.10;;;;;;;;;;5017055;28;20907;-79
2023/12/27 08:19:26;;;;;;;9.77;1.33;;;;;;;;;;5017125;28;20452;-78
2023/12/27 08:21:52;;;;;;;4.23;1.33;;;;;;;;;;5016705;28;20426;-78
2023/12/27 08:24:18;;;;;;;7.93;1.83;;;;;;;;;;5016573;28;20487;-78
2023/12/27 08:26:44;;;;;;;7.60;1.63;;;;;;;;;;5014925;28;20425;-78
2023/12/27 08:29:10;;;;;;;8.70;3.13;;;;;;;;;;5016686;28;20472;-78
2023/12/27 08:31:36;;;;;;;5.03;1.27;;;;;;;;;;5016458;28;20410;-79
2023/12/27 08:34:02;;;;;;;6.53;3.20;;;;;;;;;;5015064;28;20492;-78
2023/12/27 08:36:32;;;;;;;8.83;2.23;;;;;;;;;;5016288;28;20764;-78
2023/12/27 08:38:58;;;;;;;3.87;1.23;;;;;;;;;;5016298;28;20785;-78
2023/12/27 08:41:25;;;;;;;7.03;2.03;;;;;;;;;;5015944;28;20410;-78
2023/12/27 08:43:52;;;;;;;4.57;2.33;;;;;;;;;;5015130;28;20787;-78
2023/12/27 08:46:20;;;;;;;4.93;1.23;;;;;;;;;;5016119;28;20419;-78
2023/12/27 08:48:49;;;;;;;7.00;1.37;;;;;;;;;;5016138;28;20417;-78
2023/12/27 08:51:15;;;;;;;7.80;1.30;;;;;;;;;;5014859;28;20770;-78
2023/12/27 08:53:40;;;;;;;5.60;1.17;;;;;;;;;;5014698;28;20480;-78
2023/12/27 08:56:08;;;;;;;4.70;0.90;;;;;;;;;;5015698;28;20432;-78
2023/12/27 08:58:40;;;;;;;8.20;2.40;;;;;;;;;;5015951;28;20177;-78
2023/12/27 09:01:06;;;;;;;12.17;2.90;;;;;;;;;;5013647;28;20451;-79
2023/12/27 09:03:33;;;;;;;3.97;1.57;;;;;;;;;;5013644;28;20505;-79
2023/12/27 09:05:59;;;;;;;9.73;2.90;;;;;;;;;;5015678;28;20409;-78
2023/12/27 09:08:25;;;;;;;5.70;2.23;;;;;;;;;;5015508;28;20429;-78
2023/12/27 09:10:51;;;;;;;5.50;1.50;;;;;;;;;;5015221;28;20407;-78
2023/12/27 09:13:17;;;;;;;10.93;1.90;;;;;;;;;;5015310;28;20884;-79
2023/12/27 09:15:43;;;;;;;4.73;1.47;;;;;;;;;;5015388;28;20407;-78
2023/12/27 09:18:09;;;;;;;6.07;1.53;;;;;;;;;;5015419;28;20499;-78
2023/12/27 09:20:35;;;;;;;9.37;2.17;;;;;;;;;;5015415;28;20421;-78
2023/12/27 09:23:01;;;;;;;7.80;2.17;;;;;;;;;;5015273;28;20829;-78
2023/12/27 09:25:27;;;;;;;4.97;0.93;;;;;;;;;;5013765;28;20415;-78
2023/12/27 09:27:53;;;;;;;5.47;1.37;;;;;;;;;;5015387;28;20420;-79
2023/12/27 09:30:19;;;;;;;3.30;1.10;;;;;;;;;;5015304;28;20406;-78
2023/12/27 09:32:44;;;;;;;6.20;1.40;;;;;;;;;;5015110;28;20458;-78
2023/12/27 09:35:10;;;;;;;4.37;0.93;;;;;;;;;;5015058;28;20435;-79
2023/12/27 09:37:37;;;;;;;4.90;1.23;;;;;;;;;;5015105;28;20910;-78
2023/12/27 09:40:03;;;;;;;8.40;1.83;;;;;;;;;;5015043;28;20173;-78
2023/12/27 09:42:32;;;;;;;8.00;1.40;;;;;;;;;;5014648;28;20419;-78
2023/12/27 09:44:59;;;;;;;7.73;1.03;;;;;;;;;;5014608;28;20438;-78
2023/12/27 09:47:26;;;;;;;7.70;2.50;;;;;;;;;;5014906;28;20417;-78
2023/12/27 09:49:55;;;;;;;7.60;2.17;;;;;;;;;;5014745;28;20455;-78
2023/12/27 09:52:22;;;;;;;5.47;2.60;;;;;;;;;;5014534;28;20476;-78
2023/12/27 09:54:47;;;;;;;5.90;2.00;;;;;;;;;;5014832;28;20459;-78
2023/12/27 09:57:14;;;;;;;3.53;1.50;;;;;;;;;;5014409;28;20406;-78
2023/12/27 09:59:41;;;;;;;7.17;0.90;;;;;;;;;;5014776;28;20527;-79
2023/12/27 10:02:12;;;;;;;8.77;1.43;;;;;;;;;;5029602;28;20473;-78
2023/12/27 10:04:45;;;;;;;9.60;2.50;;;;;;;;;;5014503;28;20431;-78
2023/12/27 10:07:12;;;;;;;10.10;1.40;;;;;;;;;;5014532;28;20551;-78
2023/12/27 10:09:39;;;;;;;9.00;2.23;;;;;;;;;;5014528;28;20448;-78
2023/12/27 10:12:07;;;;;;;8.37;3.67;;;;;;;;;;5013969;28;20756;-78
2023/12/27 10:14:34;;;;;;;10.50;4.17;;;;;;;;;;5014385;28;20415;-78
2023/12/27 10:17:00;;;;;;;10.43;2.70;;;;;;;;;;5014115;28;20421;-79
2023/12/27 10:19:47;;;;;;;11.20;2.20;;;;;;;;;;5014460;28;20401;-78
2023/12/27 10:22:13;;;;;;;9.90;2.50;;;;;;;;;;5014155;28;20778;-79
2023/12/27 10:24:40;;;;;;;5.20;1.70;;;;;;;;;;5014251;28;20430;-76
2023/12/27 10:27:07;;;;;;;7.00;1.97;;;;;;;;;;5013977;28;20426;-78
2023/12/27 10:29:33;;;;;;;8.50;1.50;;;;;;;;;;5014303;28;20934;-76
2023/12/27 10:32:03;;;;;;;4.43;1.13;;;;;;;;;;5014123;28;20459;-78
2023/12/27 10:34:30;;;;;;;6.77;1.33;;;;;;;;;;5014303;28;20406;-77
2023/12/27 10:36:56;;;;;;;3.57;0.90;;;;;;;;;;5013870;28;20783;-77
2023/12/27 10:39:22;;;;;;;7.00;1.67;;;;;;;;;;5029295;28;20423;-77
2023/12/27 10:41:48;;;;;;;8.63;1.30;;;;;;;;;;5013809;28;20773;-77
2023/12/27 10:44:17;;;;;;;8.70;2.33;;;;;;;;;;5014269;28;20502;-77
2023/12/27 10:46:44;;;;;;;6.83;1.10;;;;;;;;;;5013228;28;20766;-77
2023/12/27 10:49:13;;;;;;;4.73;1.13;;;;;;;;;;5013740;28;20781;-77
2023/12/27 10:51:40;;;;;;;4.33;1.40;;;;;;;;;;5014074;28;20441;-77
2023/12/27 10:54:06;;;;;;;6.10;1.20;;;;;;;;;;5012521;28;20557;-77
2023/12/27 10:56:37;;;;;;;7.57;1.73;;;;;;;;;;5013819;28;20410;-78
2023/12/27 10:59:04;;;;;;;6.90;1.43;;;;;;;;;;5014181;28;20554;-77
2023/12/27 11:01:30;;;;;;;9.03;1.80;;;;;;;;;;5013722;28;20882;-78
2023/12/27 11:03:58;;;;;;;10.00;1.50;;;;;;;;;;5014127;28;20411;-78
2023/12/27 11:06:25;;;;;;;4.43;1.23;;;;;;;;;;5012812;28;20418;-78
2023/12/27 11:08:51;;;;;;;5.10;1.33;;;;;;;;;;5012470;28;20439;-77
2023/12/27 11:11:18;;;;;;;6.27;1.30;;;;;;;;;;5012154;28;20427;-77
2023/12/27 11:13:45;;;;;;;4.93;0.97;;;;;;;;;;5013828;28;20477;-78
2023/12/27 11:16:13;;;;;;;7.70;1.17;;;;;;;;;;5013738;28;20420;-78
2023/12/27 11:18:39;;;;;;;11.63;1.43;;;;;;;;;;5013414;28;20790;-77
2023/12/27 11:21:05;;;;;;;4.50;0.83;;;;;;;;;;5012991;28;20477;-77
2023/12/27 11:23:31;;;;;;;3.50;0.90;;;;;;;;;;5013311;28;20899;-77
2023/12/27 11:26:00;;;;;;;4.17;1.23;;;;;;;;;;5012930;28;20750;-77
2023/12/27 11:28:25;;;;;;;7.80;1.53;;;;;;;;;;5013298;28;20425;-77
2023/12/27 11:30:51;;;;;;;8.97;1.97;;;;;;;;;;5013215;28;20858;-77
2023/12/27 11:33:19;;;;;;;3.70;0.77;;;;;;;;;;5012976;28;20556;-77
2023/12/27 11:35:46;;;;;;;6.67;1.40;;;;;;;;;;5013054;28;20420;-77
2023/12/27 11:38:13;;;;;;;10.70;1.53;;;;;;;;;;5013126;28;20439;-78
2023/12/27 11:40:40;;;;;;;3.53;1.07;;;;;;;;;;5012723;28;20416;-77
2023/12/27 11:43:07;;;;;;;5.63;1.10;;;;;;;;;;5012981;28;20846;-78
2023/12/27 11:45:51;;;;;;;3.47;1.00;;;;;;;;;;5011842;28;20774;-78
2023/12/27 11:48:17;;;;;;;10.67;1.40;;;;;;;;;;5015236;28;20415;-78
2023/12/27 11:50:44;;;;;;;6.73;1.27;;;;;;;;;;5016906;28;20433;-78
2023/12/27 11:53:10;;;;;;;4.60;0.50;;;;;;;;;;5016743;28;20213;-78
2023/12/27 11:55:36;;;;;;;5.47;1.20;;;;;;;;;;5016628;28;20411;-78
2023/12/27 11:58:02;;;;;;;4.57;1.10;;;;;;;;;;5016728;28;20416;-78
2023/12/27 12:00:28;;;;;;;4.50;1.53;;;;;;;;;;5015357;28;20412;-78
2023/12/27 12:03:01;;;;;;;4.90;1.00;;;;;;;;;;5016710;28;20435;-78
2023/12/27 12:05:44;;;;;;;9.57;2.30;;;;;;;;;;5016868;28;20412;-78
2023/12/27 12:08:12;;;;;;;4.20;0.73;;;;;;;;;;5015363;28;20429;-78
2023/12/27 12:10:38;;;;;;;9.40;2.07;;;;;;;;;;5016485;28;20826;-78
2023/12/27 12:13:04;;;;;;;5.93;1.43;;;;;;;;;;5016583;28;20455;-78
2023/12/27 12:15:31;;;;;;;7.97;1.73;;;;;;;;;;5016760;28;20418;-78
2023/12/27 12:17:57;;;;;;;3.80;1.20;;;;;;;;;;5016629;28;20403;-78
2023/12/27 12:20:27;;;;;;;12.93;2.37;;;;;;;;;;5016630;28;20523;-78
2023/12/27 12:22:53;;;;;;;14.40;2.43;;;;;;;;;;5016472;28;20412;-78
2023/12/27 12:25:25;;;;;;;4.00;0.77;;;;;;;;;;5016146;28;20414;-78
2023/12/27 12:27:51;;;;;;;3.80;1.20;;;;;;;;;;5015240;28;20469;-78
2023/12/27 12:30:17;;;;;;;4.33;1.43;;;;;;;;;;5016524;28;20891;-78
2023/12/27 12:32:43;;;;;;;5.97;1.63;;;;;;;;;;5016440;28;20482;-77
2023/12/27 12:35:10;;;;;;;6.37;1.47;;;;;;;;;;5015229;28;20434;-77
2023/12/27 12:37:37;;;;;;;8.30;2.10;;;;;;;;;;4999025;28;20428;-77
2023/12/27 12:40:08;;;;;;;6.47;1.50;;;;;;;;;;5016029;28;20927;-78
2023/12/27 12:42:34;;;;;;;3.70;1.97;;;;;;;;;;5015136;28;20543;-78
2023/12/27 12:45:02;;;;;;;8.10;1.77;;;;;;;;;;5016154;28;20416;-77
2023/12/27 12:47:28;;;;;;;4.40;1.47;;;;;;;;;;5016146;28;20511;-77
2023/12/27 12:49:54;;;;;;;6.87;1.60;;;;;;;;;;5015933;28;20413;-78
2023/12/27 12:52:20;;;;;;;3.10;1.87;;;;;;;;;;5015798;28;20499;-79
2023/12/27 12:54:48;;;;;;;6.90;1.90;;;;;;;;;;5014315;28;20993;-78
2023/12/27 12:57:14;;;;;;;4.70;1.77;;;;;;;;;;5015796;28;20401;-78
2023/12/27 12:59:43;;;;;;;3.33;1.30;;;;;;;;;;5015774;28;21029;-78
2023/12/27 13:02:09;;;;;;;5.80;1.77;;;;;;;;;;5015564;28;20543;-78
2023/12/27 13:04:35;;;;;;;5.93;1.20;;;;;;;;;;5015564;28;20501;-78
2023/12/27 13:07:05;;;;;;;3.13;1.30;;;;;;;;;;5015392;28;20406;-78
2023/12/27 13:09:31;;;;;;;9.13;2.20;;;;;;;;;;5015678;28;20424;-78
2023/12/27 13:11:58;;;;;;;7.87;1.37;;;;;;;;;;5015326;28;20816;-78
2023/12/27 13:14:24;;;;;;;8.33;1.80;;;;;;;;;;5015498;28;20890;-79
2023/12/27 13:16:50;;;;;;;8.23;2.40;;;;;;;;;;5014276;28;20509;-78
2023/12/27 13:19:17;;;;;;;11.07;3.03;;;;;;;;;;5015401;28;20418;-78
2023/12/27 13:21:43;;;;;;;5.80;2.47;;;;;;;;;;5014281;28;20425;-78
2023/12/27 13:24:09;;;;;;;6.33;2.43;;;;;;;;;;5014024;28;20426;-79
2023/12/27 13:26:35;;;;;;;10.57;4.33;;;;;;;;;;5014831;28;20418;-78
2023/12/27 13:29:01;;;;;;;39.73;22.20;;;;;;;;;;5015064;28;20416;-78
2023/12/27 13:31:27;;;;;;;31.03;18.87;;;;;;;;;;5015136;28;20419;-78
2023/12/27 13:33:53;;;;;;;24.07;13.60;;;;;;;;;;5014816;28;20529;-78
2023/12/27 13:36:19;;;;;;;13.73;8.50;;;;;;;;;;5015055;28;20921;-78
2023/12/27 13:38:45;;;;;;;14.20;4.33;;;;;;;;;;5014775;28;20311;-79
2023/12/27 13:41:11;;;;;;;11.70;4.20;;;;;;;;;;5014216;28;20420;-78
2023/12/27 13:43:39;;;;;;;6.90;2.87;;;;;;;;;;5030010;28;20432;-78
2023/12/27 13:46:05;;;;;;;14.33;7.80;;;;;;;;;;5014702;28;20449;-78
2023/12/27 13:48:32;;;;;;;10.67;2.37;;;;;;;;;;5014665;28;20459;-79
2023/12/27 13:51:00;;;;;;;6.70;3.07;;;;;;;;;;5014712;28;20402;-79
2023/12/27 13:53:26;;;;;;;10.17;2.37;;;;;;;;;;5014678;28;20894;-78
2023/12/27 13:55:52;;;;;;;8.77;1.67;;;;;;;;;;5014351;28;20444;-78
2023/12/27 13:58:17;;;;;;;5.27;1.30;;;;;;;;;;5014684;28;20448;-78
2023/12/27 14:00:43;;;;;;;4.43;0.93;;;;;;;;;;5014344;28;21009;-78
2023/12/27 14:03:09;;;;;;;4.37;0.87;;;;;;;;;;5014583;28;20428;-78
2023/12/27 14:05:37;;;;;;;8.70;1.87;;;;;;;;;;5012735;28;20412;-78
2023/12/27 14:08:05;;;;;;;6.50;1.10;;;;;;;;;;5013834;28;20414;-78
2023/12/27 14:10:31;;;;;;;5.70;2.10;;;;;;;;;;5013544;28;20410;-78
2023/12/27 14:12:56;;;;;;;3.60;1.87;;;;;;;;;;5013654;28;20470;-79
2023/12/27 14:15:22;;;;;;;6.05;1.85;;;;;;;;;;5013340;28;20414;-78
2023/12/27 14:17:54;;;;;;;7.53;1.40;;;;;;;;;;5013785;28;20196;-78
2023/12/27 14:20:20;;;;;;;3.17;1.20;;;;;;;;;;5013147;28;20412;-78
2023/12/27 14:22:46;;;;;;;6.03;1.40;;;;;;;;;;5012758;28;20918;-78
2023/12/27 14:25:12;;;;;;;7.17;2.17;;;;;;;;;;5013423;28;20421;-78
2023/12/27 14:27:39;;;;;;;5.77;2.00;;;;;;;;;;5013973;28;20415;-78
2023/12/27 14:30:05;;;;;;;8.13;2.07;;;;;;;;;;5013807;28;20438;-78
2023/12/27 14:32:31;;;;;;;9.33;2.40;;;;;;;;;;5009583;28;20459;-78
2023/12/27 14:34:59;;;;;;;5.53;1.20;;;;;;;;;;5013913;28;20443;-78
2023/12/27 14:37:25;;;;;;;8.47;2.43;;;;;;;;;;5013015;28;20434;-78